Huntsville, AR

2:05 PM CST on December 17, 2014 (GMT -0600)
Wood Farms | Change Station
CLOSE
Current Station
Personal Weather Station
Location: Huntsville, AR
Elevation: 1483 ft
Nearby Weather Stations
Active Advisory: Special Statement

Elev 1483 ft 36.12 °N, 93.79 °W | Updated 10 minutes ago

Overcast
Overcast
34.5 °F
Feels Like 30 °F
N
5.3
Wind Variable Wind from ESE

Today
High -- | Low -- °F
--% Chance of Precip.
Yesterday
High -- | Low -- °F
Precip. -- in
7:19 AM 5:02 PM
Waning Crescent, 20% visible
Pressure 30.23 in
Visibility 6.0 miles
Clouds Scattered Clouds 4300 ft
Overcast 6000 ft
Windchill 30 °F
Dew Point 34 °F
Humidity 96%
Rainfall 0.02 in
Snow Depth Not available.
UV 1 out of 12
Pollen 3.90 out of 12
Air Quality Not available.
Flu Activity Not available.
METAR KASG 171948Z 11007KT 6SM -RABR SCT043 OVC060 01/M01 A3023

More Conditions Fewer Conditions

Pressure 30.23 in
Visibility 6.0 miles
Clouds Scattered Clouds 4300 ft
Overcast 6000 ft
Windchill 30 °F
Dew Point 34 °F
Humidity 96%
Rainfall 0.02 in
Snow Depth Not available.
UV 1 out of 12
Pollen 3.90 out of 12
Air Quality Not available.
Flu Activity Not available.
METAR KASG 171948Z 11007KT 6SM -RABR SCT043 OVC060 01/M01 A3023

More Conditions Fewer Conditions

Nowcast | as of 1:28 PM CST on December 17, 2014

At 1:28 PM...Doppler radars detected widespread precipitation occurring over eastern Oklahoma and western Arkansas. A mix of rain and sleet continues...though a gradual transition to all rain was ongoing as temperatures slowly warm. The precipitation was moving off to the northeast at around 40 mph. Through 3:00 PM...widespread precipitation will continue for the area. The gradual transition to all rain will be slow...however by mid afternoon widespread rain will be common...along with the potential for isolated thunderstorms. Average hourly rainfall of less than one tenth of an inch will remain common...with isolated locally higher amounts near one quarter of an inch possible. Some grassy areas may become covered with the heavier sleet...otherwise no accumulation is expected from this activity.

×

10-Day Weather Forecast

Almanac

Astronomy

Dec. 17, 2014 Rise Set
Actual Time
Civil Twilight
Nautical Twilight
Astronomical Twilight
Moon
Length of Visible Light
Length of Day
Tomorrow will be .
, % of the Moon is Illuminated

Today's Extremes

State Highs State Lows

Community

WunderPhotos

Upload Photos

1,778,802 photos uploaded!

WunderBlogs® & News

Nearby

Air Quality

  Air Quality AQ Index Pollutant
Not available.

Snow Depth

Station Depth Elevation

Earthquake Activity

City Distance Mag. Time & Date
Minimum magnitude displayed is 2.5.

Coastal Water Temperatures

Place Temperature

Nearby Weather Stations